EA3CNO-1 Barcelona ES current weather conditions

sailwx.info

Wind from 255 at 1 knots gusting 13

Air temperature 21.1° C
Dewpoint 18.3° C

Last reported at 2020-Sep-18 13:41 UTC.
Time now 2020-Sep-18 14:22 UTC

Location: N 41°25' E 002°07'.
View on Google Maps.

See reports from other nearby stations

  
Tides and Currents Weather Stations Pressure Air Temp Water Temp Dewpoint Dewpoint Depression Visibility Wind Speed Wind Dir Waves Ship Positions
date/time (UTC)wind fromknots sea level pressurealtimeterstation pressurevisibilityair tempwater tempwave heightnotes
2020-Sep-18 13:41 255 1 gusting 13 21.1
2020-Sep-18 13:31 238 4 gusting 9 20.0
2020-Sep-18 13:21 259 4 gusting 15 20.0
2020-Sep-18 13:11 232 6 gusting 12 19.4
2020-Sep-18 13:01 243 6 gusting 10 19.4
2020-Sep-18 12:41 248 4 gusting 9 19.4
2020-Sep-18 12:31 261 3 gusting 8 19.4
2020-Sep-18 12:21 271 1 gusting 7 19.4
2020-Sep-18 12:11 247 3 gusting 9 18.9
2020-Sep-18 12:01 246 3 gusting 8 18.9
2020-Sep-18 11:51 254 2 gusting 8 18.9
2020-Sep-18 11:41 242 5 gusting 8 19.4
2020-Sep-18 11:31 252 2 gusting 6 19.4
2020-Sep-18 11:21 257 3 gusting 7 20.6
2020-Sep-18 11:11 276 2 gusting 9 21.7
2020-Sep-18 11:01 251 5 gusting 11 22.2
2020-Sep-18 10:51 282 1 gusting 6 22.8
2020-Sep-18 10:41 259 2 gusting 6 23.9
2020-Sep-18 10:31 257 2 gusting 6 24.4
2020-Sep-18 10:21 25.6
2020-Sep-18 10:11 25.6
2020-Sep-18 10:01 25.0
2020-Sep-18 09:51 25.0
2020-Sep-18 09:41 068 0 gusting 3 25.0
2020-Sep-18 09:31 24.4
2020-Sep-18 09:21 23.9
2020-Sep-18 09:11 23.3
2020-Sep-18 09:01 22.8
2020-Sep-18 08:51 22.8
2020-Sep-18 08:41 23.3
2020-Sep-18 08:31 23.3
2020-Sep-18 08:21 23.3
2020-Sep-18 08:11 23.3
2020-Sep-18 08:01 23.3
2020-Sep-18 07:51 23.3
2020-Sep-18 07:41 22.8
2020-Sep-18 07:31 22.8
2020-Sep-18 07:21 22.2
2020-Sep-18 07:11 22.2
2020-Sep-18 07:01 21.7
2020-Sep-18 06:51 21.7
2020-Sep-18 06:41 21.7
2020-Sep-18 06:31 21.7
2020-Sep-18 06:21 21.1
2020-Sep-18 06:11 21.1
2020-Sep-18 06:01 21.1
2020-Sep-18 05:51 21.1
2020-Sep-18 05:41 290 0 gusting 2 21.1
2020-Sep-18 05:31 21.7
2020-Sep-18 05:21 21.7
2020-Sep-18 05:11 21.7
2020-Sep-18 05:01 22.2
2020-Sep-18 04:51 231 0 gusting 4 22.2
2020-Sep-18 04:41 248 0 gusting 3 21.7
2020-Sep-18 04:31 273 0 gusting 2 21.1
2020-Sep-18 04:21 293 0 gusting 2 21.1
2020-Sep-18 04:11 284 0 gusting 1 21.1
2020-Sep-18 04:01 280 0 gusting 2 21.1
2020-Sep-18 03:51 289 0 gusting 2 20.6
2020-Sep-18 03:41 289 0 gusting 2 20.6
2020-Sep-18 03:31 300 0 gusting 2 20.6
2020-Sep-18 03:21 291 0 gusting 2 20.6
2020-Sep-18 03:11 274 0 gusting 3 20.0
2020-Sep-18 03:01 290 0 gusting 2 20.0
2020-Sep-18 02:51 20.0
2020-Sep-18 02:41 20.0
2020-Sep-18 02:31 20.0
2020-Sep-18 02:21 293 0 gusting 3 20.0
2020-Sep-18 02:11 308 0 gusting 3 20.0
2020-Sep-18 02:01 299 1 gusting 2 20.6
2020-Sep-18 01:51 288 0 gusting 2 20.6
2020-Sep-18 01:41 300 0 gusting 3 20.6
2020-Sep-18 01:31 21.1
2020-Sep-18 01:21 21.1
2020-Sep-18 01:11 22.2
2020-Sep-18 01:01 259 0 gusting 3 22.8
2020-Sep-18 00:51 22.8
2020-Sep-18 00:41 22.8
2020-Sep-18 00:31 248 0 gusting 2 23.3
2020-Sep-18 00:21 251 1 gusting 3 23.3
2020-Sep-18 00:11 263 0 gusting 3 23.3
2020-Sep-18 00:01 262 0 gusting 6 23.3
2020-Sep-17 23:51 245 1 gusting 5 23.9
2020-Sep-17 23:41 241 2 gusting 6 23.9
2020-Sep-17 23:31 262 0 gusting 4 23.3
2020-Sep-17 23:21 247 1 gusting 4 22.8
2020-Sep-17 23:11 256 1 gusting 3 22.2
2020-Sep-17 23:01 22.2
2020-Sep-17 22:51 22.2
2020-Sep-17 22:41 22.8
2020-Sep-17 22:33 22.8
2020-Sep-17 22:21 22.8
2020-Sep-17 22:11 22.8
2020-Sep-17 22:01 22.8
2020-Sep-17 21:51 22.8
2020-Sep-17 21:41 22.8
2020-Sep-17 21:31 23.3
2020-Sep-17 21:21 23.3
2020-Sep-17 21:11 23.9
2020-Sep-17 21:01 23.9
2020-Sep-17 20:51 319 0 gusting 5 23.9
2020-Sep-17 20:41 23.3
2020-Sep-17 20:31 23.3
2020-Sep-17 20:21 23.3
2020-Sep-17 20:11 23.3
2020-Sep-17 20:01 23.3
2020-Sep-17 19:51 23.3
2020-Sep-17 19:41 23.3
2020-Sep-17 19:31 23.3
2020-Sep-17 19:21 23.3
2020-Sep-17 19:11 23.9
2020-Sep-17 19:01 23.9
2020-Sep-17 18:51 23.9
2020-Sep-17 18:41 24.4
2020-Sep-17 18:31 24.4
2020-Sep-17 18:21 307 0 gusting 4 24.4
2020-Sep-17 18:11 327 1 gusting 6 24.4
2020-Sep-17 18:01 296 0 gusting 4 24.4
2020-Sep-17 17:51 300 0 gusting 4 24.4
2020-Sep-17 17:41 24.4
2020-Sep-17 17:31 270 0 gusting 4 25.0
2020-Sep-17 17:21 318 1 gusting 4 25.0
2020-Sep-17 17:11 311 2 gusting 5 25.0
2020-Sep-17 17:00 293 1 gusting 4 25.0
2020-Sep-17 16:50 314 0 gusting 6 25.0
2020-Sep-17 16:40 25.6
2020-Sep-17 16:30 032 1 gusting 4 25.6
2020-Sep-17 16:20 26.1
2020-Sep-17 16:10 025 0 gusting 2 26.1
2020-Sep-17 16:00 058 0 gusting 4 26.1
2020-Sep-17 15:50 034 1 gusting 6 26.1
2020-Sep-17 15:40 048 2 gusting 5 26.7
2020-Sep-17 15:30 051 2 gusting 5 26.7
2020-Sep-17 15:20 054 2 gusting 5 27.2
2020-Sep-17 15:10 060 1 gusting 5 27.2
2020-Sep-17 15:00 045 0 gusting 4 27.8
2020-Sep-17 14:50 045 2 gusting 4 27.8
2020-Sep-17 14:40 053 0 gusting 6 27.2
2020-Sep-17 14:30 055 1 gusting 5 27.2
2020-Sep-17 14:20 048 3 gusting 7 27.2
2020-Sep-17 14:10 047 2 gusting 5 27.2
2020-Sep-17 14:00 048 1 gusting 6 27.2
2020-Sep-17 13:50 057 2 gusting 5 27.8
2020-Sep-17 13:40 055 1 gusting 5 28.3
2020-Sep-17 13:30 28.3
2020-Sep-17 13:20 056 2 gusting 6 28.3
2020-Sep-17 13:10 059 1 gusting 4 28.9
2020-Sep-17 13:00 28.9
2020-Sep-17 12:50 016 1 gusting 8 28.9
2020-Sep-17 12:40 005 1 gusting 4 29.4
2020-Sep-17 12:30 29.4
2020-Sep-17 12:20 301 0 gusting 3 29.4
2020-Sep-17 12:10 28.9
2020-Sep-17 12:00 310 0 gusting 7 28.9
2020-Sep-17 11:50 321 2 gusting 5 28.9
2020-Sep-17 11:40 29.4
2020-Sep-17 11:30 29.4
2020-Sep-17 11:20 28.9
2020-Sep-17 11:10 28.3
2020-Sep-17 11:00 27.8
2020-Sep-17 10:50 27.8
2020-Sep-17 10:40 27.8
2020-Sep-17 10:30 264 0 gusting 2 27.2
2020-Sep-17 10:20 27.2
2020-Sep-17 10:10 27.2
2020-Sep-17 10:00 27.8
2020-Sep-17 09:50 069 0 gusting 3 27.2
2020-Sep-17 09:40 26.7
2020-Sep-17 09:30 280 0 gusting 5 26.1
2020-Sep-17 09:20 251 1 gusting 5 25.6
2020-Sep-17 09:10 250 0 gusting 4 25.0
2020-Sep-17 09:00 242 1 gusting 3 25.0
2020-Sep-17 08:50 25.0
2020-Sep-17 08:40 25.0
2020-Sep-17 08:30 272 0 gusting 6 25.0
2020-Sep-17 08:20 238 3 gusting 6 25.0
2020-Sep-17 08:10 249 2 gusting 7 24.4
2020-Sep-17 08:01 243 3 gusting 9 24.4
2020-Sep-17 07:50 236 5 gusting 9 24.4
2020-Sep-17 07:40 238 3 gusting 8 23.9
2020-Sep-17 07:30 249 3 gusting 9 23.3
2020-Sep-17 07:20 247 2 gusting 8 23.3
2020-Sep-17 07:10 237 3 gusting 7 22.8
2020-Sep-17 07:00 248 4 gusting 8 22.8
2020-Sep-17 06:50 259 3 gusting 10 22.8
2020-Sep-17 06:40 256 2 gusting 7 22.2
2020-Sep-17 06:30 260 3 gusting 6 22.2
2020-Sep-17 06:10 240 6 gusting 12 21.7
2020-Sep-17 06:00 264 2 gusting 12 21.7
2020-Sep-17 05:50 251 4 gusting 8 22.2
2020-Sep-17 05:40 242 4 gusting 8 22.2
2020-Sep-17 05:30 242 3 gusting 6 22.2
2020-Sep-17 05:20 260 1 gusting 6 22.2
2020-Sep-17 05:10 241 3 gusting 7 22.8
2020-Sep-17 05:00 261 2 gusting 7 22.8
2020-Sep-17 04:50 263 1 gusting 6 22.2
2020-Sep-17 04:40 265 2 gusting 7 22.2
2020-Sep-17 04:30 258 2 gusting 6 22.2
2020-Sep-17 04:20 270 2 gusting 10 22.2
2020-Sep-17 04:10 256 3 gusting 7 21.7
2020-Sep-17 04:00 250 3 gusting 7 21.7
2020-Sep-17 03:50 247 4 gusting 7 21.7
2020-Sep-17 03:40 267 1 gusting 6 21.7
2020-Sep-17 03:30 254 4 gusting 8 21.7
2020-Sep-17 03:20 243 3 gusting 8 21.7
2020-Sep-17 03:10 248 3 gusting 7 22.2
2020-Sep-17 03:00 271 1 gusting 5 22.2
2020-Sep-17 02:50 266 2 gusting 6 22.2
2020-Sep-17 02:40 262 1 gusting 6 22.2
2020-Sep-17 02:30 257 2 gusting 6 22.2
2020-Sep-17 02:20 231 0 gusting 3 22.2
2020-Sep-17 02:10 22.2
2020-Sep-17 02:00 252 0 gusting 3 22.8
2020-Sep-17 01:50 271 1 gusting 6 22.8
2020-Sep-17 01:40 262 1 gusting 8 22.8
2020-Sep-17 01:30 255 2 gusting 6 22.8
2020-Sep-17 01:20 268 2 gusting 6 22.8
2020-Sep-17 01:10 273 1 gusting 6 22.2
2020-Sep-17 01:00 275 1 gusting 6 22.2
2020-Sep-17 00:50 245 5 gusting 7 22.2
2020-Sep-17 00:40 269 2 gusting 7 22.2
2020-Sep-17 00:30 268 3 gusting 8 22.2
2020-Sep-17 00:20 254 4 gusting 8 22.2
2020-Sep-17 00:10 256 2 gusting 7 22.2
2020-Sep-17 00:00 260 3 gusting 8 22.2
2020-Sep-16 23:50 257 3 gusting 9 22.8
2020-Sep-16 23:40 270 1 gusting 6 22.8
2020-Sep-16 23:30 271 1 gusting 6 22.8
2020-Sep-16 23:20 261 1 gusting 6 22.8
2020-Sep-16 23:10 278 1 gusting 7 22.8
2020-Sep-16 23:00 261 2 gusting 7 22.8
2020-Sep-16 22:50 264 2 gusting 7 22.8
2020-Sep-16 22:40 255 3 gusting 6 22.8
2020-Sep-16 22:30 260 3 gusting 8 22.8
2020-Sep-16 22:20 264 3 gusting 7 22.8
2020-Sep-16 22:10 257 4 gusting 7 22.8
2020-Sep-16 22:00 272 2 gusting 6 23.3
2020-Sep-16 21:50 288 1 gusting 6 23.3
2020-Sep-16 21:40 271 1 gusting 6 23.3
2020-Sep-16 21:30 268 1 gusting 4 23.3
2020-Sep-16 21:20 267 0 gusting 6 23.3
2020-Sep-16 21:10 272 1 gusting 5 23.3
2020-Sep-16 21:00 291 1 gusting 5 23.3
2020-Sep-16 20:50 263 1 gusting 4 23.3
2020-Sep-16 20:40 272 0 gusting 6 23.3
2020-Sep-16 20:30 263 1 gusting 6 23.3
2020-Sep-16 20:20 266 1 gusting 6 23.3
2020-Sep-16 20:10 247 3 gusting 8 23.3
2020-Sep-16 20:00 244 4 gusting 8 23.3
2020-Sep-16 19:50 243 2 gusting 8 23.3
2020-Sep-16 19:40 246 2 gusting 8 23.9
2020-Sep-16 19:30 236 4 gusting 7 23.9
2020-Sep-16 19:20 262 1 gusting 7 23.9
2020-Sep-16 19:10 243 3 gusting 7 23.9
2020-Sep-16 19:01 268 1 gusting 6 23.9
2020-Sep-16 18:50 246 3 gusting 7 23.9
2020-Sep-16 18:40 259 0 gusting 6 23.3
2020-Sep-16 18:30 23.9
2020-Sep-16 18:20 23.9
2020-Sep-16 18:10 24.4
2020-Sep-16 18:01 270 0 gusting 2 24.4
2020-Sep-16 17:50 24.4
2020-Sep-16 17:21 25.6
2020-Sep-16 17:11 26.1
2020-Sep-16 17:01 26.1
2020-Sep-16 16:51 26.1
2020-Sep-16 16:41 26.1
2020-Sep-16 16:31 26.7
2020-Sep-16 16:21 26.7
2020-Sep-16 16:11 26.7
2020-Sep-16 16:01 26.7
2020-Sep-16 15:51 053 1 gusting 4 27.2
2020-Sep-16 15:41 27.8
2020-Sep-16 15:31 015 0 gusting 7 27.2
2020-Sep-16 15:21 003 1 gusting 4 27.8
2020-Sep-16 15:11 343 0 gusting 6 27.8
2020-Sep-16 15:01 322 2 gusting 6 27.8
2020-Sep-16 14:51 056 0 gusting 6 27.8
2020-Sep-16 14:41 058 2 gusting 6 27.8
2020-Sep-16 14:31 27.8
2020-Sep-16 14:21 037 1 gusting 6 27.8
2020-Sep-16 14:11 323 0 gusting 5 27.8
2020-Sep-16 14:01 035 1 gusting 6 27.8